Time,TemperatureF,DewpointF,PressureIn,WindDirection,WindDirectionDegrees,WindSpeedMPH,WindSpeedGustMPH,Humidity,HourlyPrecipIn,Conditions,Clouds,dailyrainin,SoftwareType,DateUTC
2013-07-19 00:01:00,63.9,50.5,23.45,NNE,23,2.0,2.0,62,0.00,,,0.00,meteohub,2013-07-19 06:01:00,
2013-07-19 00:06:00,63.9,50.5,23.45,NNE,23,2.0,2.0,62,0.00,,,0.00,meteohub,2013-07-19 06:06:00,
2013-07-19 00:11:00,61.7,49.8,23.45,NE,45,0.0,2.0,65,0.00,,,0.00,meteohub,2013-07-19 06:11:00,
2013-07-19 00:17:00,62.2,50.0,23.45,NE,45,1.0,2.0,64,0.00,,,0.00,meteohub,2013-07-19 06:17:00,
2013-07-19 00:22:00,63.1,50.4,23.45,NE,45,2.0,2.0,63,0.00,,,0.00,meteohub,2013-07-19 06:22:00,
2013-07-19 00:27:00,62.2,49.5,23.45,NNE,23,1.0,2.0,63,0.00,,,0.00,meteohub,2013-07-19 06:27:00,
2013-07-19 00:32:00,61.3,49.5,23.45,NE,45,1.0,2.0,65,0.00,,,0.00,meteohub,2013-07-19 06:32:00,
2013-07-19 00:37:00,61.3,49.8,23.45,NE,45,2.0,2.0,66,0.00,,,0.00,meteohub,2013-07-19 06:37:00,
2013-07-19 00:42:00,62.2,50.4,23.45,NE,45,1.0,2.0,65,0.00,,,0.00,meteohub,2013-07-19 06:42:00,
2013-07-19 00:47:00,61.9,49.6,23.45,North,0,1.0,2.0,64,0.00,,,0.00,meteohub,2013-07-19 06:47:00,
2013-07-19 00:52:00,61.0,49.1,23.45,North,0,0.0,2.0,65,0.00,,,0.00,meteohub,2013-07-19 06:52:00,
2013-07-19 00:57:00,60.4,49.8,23.45,NE,45,1.0,2.0,68,0.00,,,0.00,meteohub,2013-07-19 06:57:00,
2013-07-19 01:02:00,61.0,50.0,23.45,NE,45,1.0,2.0,67,0.00,,,0.00,meteohub,2013-07-19 07:02:00,
2013-07-19 01:07:00,62.2,50.0,23.44,NE,45,2.0,2.0,64,0.00,,,0.00,meteohub,2013-07-19 07:07:00,
2013-07-19 01:12:00,61.2,48.9,23.45,NE,45,1.0,2.0,64,0.00,,,0.00,meteohub,2013-07-19 07:12:00,
2013-07-19 01:17:00,60.1,48.2,23.44,NE,45,0.0,2.0,65,0.00,,,0.00,meteohub,2013-07-19 07:17:00,
2013-07-19 01:22:00,59.9,49.6,23.44,NE,45,2.0,2.0,69,0.00,,,0.00,meteohub,2013-07-19 07:22:00,
2013-07-19 01:27:00,61.0,49.1,23.44,NE,45,1.0,2.0,65,0.00,,,0.00,meteohub,2013-07-19 07:27:00,
2013-07-19 01:32:00,60.3,48.4,23.45,NE,45,1.0,2.0,65,0.00,,,0.00,meteohub,2013-07-19 07:32:00,
2013-07-19 01:37:00,59.4,48.0,23.44,NE,45,2.0,2.0,66,0.00,,,0.00,meteohub,2013-07-19 07:37:00,
2013-07-19 01:42:00,58.6,48.6,23.44,North,0,1.0,2.0,69,0.00,,,0.00,meteohub,2013-07-19 07:42:00,
2013-07-19 01:47:00,58.6,48.9,23.44,NE,45,1.0,2.0,70,0.00,,,0.00,meteohub,2013-07-19 07:47:00,
2013-07-19 01:52:00,59.5,48.9,23.44,NE,45,0.0,2.0,68,0.00,,,0.00,meteohub,2013-07-19 07:52:00,
2013-07-19 01:57:00,59.0,48.0,23.44,North,0,2.0,2.0,67,0.00,,,0.00,meteohub,2013-07-19 07:57:00,
2013-07-19 02:02:00,58.5,48.4,23.44,NE,45,2.0,2.0,69,0.00,,,0.00,meteohub,2013-07-19 08:02:00,
2013-07-19 02:04:00,58.5,48.4,23.44,NE,45,2.0,2.0,69,0.00,,,0.00,meteohub,2013-07-19 08:04:00,
2013-07-19 02:09:00,57.4,47.7,23.44,NE,45,2.0,2.0,70,0.00,,,0.00,meteohub,2013-07-19 08:09:00,
2013-07-19 02:14:00,57.7,49.1,23.44,SE,135,1.0,2.0,73,0.00,,,0.00,meteohub,2013-07-19 08:14:00,
2013-07-19 02:19:00,59.0,49.3,23.44,North,0,1.0,2.0,70,0.00,,,0.00,meteohub,2013-07-19 08:19:00,
2013-07-19 02:24:00,58.1,48.4,23.44,NE,45,2.0,2.0,70,0.00,,,0.00,meteohub,2013-07-19 08:24:00,
2013-07-19 02:29:00,57.2,47.8,23.44,North,0,0.0,2.0,71,0.00,,,0.00,meteohub,2013-07-19 08:29:00,
2013-07-19 02:35:00,56.7,47.7,23.43,NE,45,2.0,2.0,72,0.00,,,0.00,meteohub,2013-07-19 08:35:00,
2013-07-19 02:40:00,56.8,48.6,23.44,East,90,0.0,2.0,74,0.00,,,0.00,meteohub,2013-07-19 08:40:00,
2013-07-19 02:45:00,58.1,48.0,23.43,NE,45,2.0,2.0,69,0.00,,,0.00,meteohub,2013-07-19 08:45:00,
2013-07-19 02:50:00,57.6,47.5,23.43,NE,45,2.0,2.0,69,0.00,,,0.00,meteohub,2013-07-19 08:50:00,
2013-07-19 02:55:00,56.8,47.5,23.43,North,0,0.0,2.0,71,0.00,,,0.00,meteohub,2013-07-19 08:55:00,
2013-07-19 03:00:00,56.3,48.2,23.43,North,0,2.0,2.0,74,0.00,,,0.00,meteohub,2013-07-19 09:00:00,
2013-07-19 03:05:00,55.9,48.2,23.43,NNW,338,1.0,2.0,75,0.00,,,0.00,meteohub,2013-07-19 09:05:00,
2013-07-19 03:10:00,56.1,48.7,23.43,NE,45,1.0,2.0,76,0.00,,,0.00,meteohub,2013-07-19 09:10:00,
2013-07-19 03:15:00,56.5,48.0,23.43,NE,45,2.0,2.0,73,0.00,,,0.00,meteohub,2013-07-19 09:15:00,
2013-07-19 03:20:00,56.1,46.8,23.43,North,0,2.0,2.0,71,0.00,,,0.00,meteohub,2013-07-19 09:20:00,
2013-07-19 03:25:00,55.6,46.8,23.43,North,0,2.0,2.0,72,0.00,,,0.00,meteohub,2013-07-19 09:25:00,
2013-07-19 03:31:00,55.2,47.5,23.43,North,0,0.0,2.0,75,0.00,,,0.00,meteohub,2013-07-19 09:31:00,
2013-07-19 03:36:00,55.0,47.3,23.43,NE,45,0.0,2.0,75,0.00,,,0.00,meteohub,2013-07-19 09:36:00,
2013-07-19 03:41:00,55.0,46.9,23.43,East,90,2.0,2.0,74,0.00,,,0.00,meteohub,2013-07-19 09:41:00,
2013-07-19 03:46:00,56.8,48.2,23.43,North,0,2.0,2.0,73,0.00,,,0.00,meteohub,2013-07-19 09:46:00,
2013-07-19 03:51:00,56.3,47.5,23.43,North,0,1.0,2.0,72,0.00,,,0.00,meteohub,2013-07-19 09:51:00,
2013-07-19 03:56:00,55.6,47.5,23.43,North,0,1.0,2.0,74,0.00,,,0.00,meteohub,2013-07-19 09:56:00,
2013-07-19 04:01:00,55.0,46.9,23.43,North,0,0.0,2.0,74,0.00,,,0.00,meteohub,2013-07-19 10:01:00,
2013-07-19 04:06:00,55.0,46.9,23.42,North,0,0.0,2.0,74,0.00,,,0.00,meteohub,2013-07-19 10:06:00,
2013-07-19 04:11:00,54.1,46.0,23.43,North,0,2.0,2.0,74,0.00,,,0.00,meteohub,2013-07-19 10:11:00,
2013-07-19 04:16:00,54.0,45.9,23.43,NNW,338,2.0,2.0,74,0.00,,,0.00,meteohub,2013-07-19 10:16:00,
2013-07-19 04:21:00,54.7,46.9,23.43,North,0,0.0,2.0,75,0.00,,,0.00,meteohub,2013-07-19 10:21:00,
2013-07-19 04:27:00,55.0,46.9,23.43,NE,45,1.0,2.0,74,0.00,,,0.00,meteohub,2013-07-19 10:27:00,
2013-07-19 04:32:00,54.5,46.4,23.43,North,0,1.0,2.0,74,0.00,,,0.00,meteohub,2013-07-19 10:32:00,
2013-07-19 04:37:00,54.0,46.2,23.43,NE,45,2.0,2.0,75,0.00,,,0.00,meteohub,2013-07-19 10:37:00,
2013-07-19 04:42:00,53.6,45.5,23.43,North,0,2.0,2.0,74,0.00,,,0.00,meteohub,2013-07-19 10:42:00,
2013-07-19 04:47:00,53.4,46.0,23.42,North,0,2.0,2.0,76,0.00,,,0.00,meteohub,2013-07-19 10:47:00,
2013-07-19 04:52:00,53.4,46.4,23.42,North,0,2.0,2.0,77,0.00,,,0.00,meteohub,2013-07-19 10:52:00,
2013-07-19 04:57:00,53.1,46.0,23.42,NW,315,1.0,2.0,77,0.00,,,0.00,meteohub,2013-07-19 10:57:00,
2013-07-19 05:02:00,52.9,45.9,23.43,North,0,1.0,2.0,77,0.00,,,0.00,meteohub,2013-07-19 11:02:00,
2013-07-19 05:07:00,52.9,45.9,23.43,North,0,0.0,2.0,77,0.00,,,0.00,meteohub,2013-07-19 11:07:00,
2013-07-19 05:12:00,52.7,46.0,23.43,North,0,1.0,2.0,78,0.00,,,0.00,meteohub,2013-07-19 11:12:00,
2013-07-19 05:18:00,53.4,46.4,23.43,North,0,0.0,2.0,77,0.00,,,0.00,meteohub,2013-07-19 11:18:00,
2013-07-19 05:23:00,53.2,45.5,23.43,NE,45,2.0,2.0,75,0.00,,,0.00,meteohub,2013-07-19 11:23:00,
2013-07-19 05:28:00,52.7,44.6,23.43,North,0,1.0,2.0,74,0.00,,,0.00,meteohub,2013-07-19 11:28:00,
2013-07-19 05:33:00,52.5,45.1,23.43,NE,45,2.0,2.0,76,0.00,,,0.00,meteohub,2013-07-19 11:33:00,
2013-07-19 05:38:00,52.3,45.3,23.43,NE,45,2.0,2.0,77,0.00,,,0.00,meteohub,2013-07-19 11:38:00,
2013-07-19 05:43:00,52.3,45.3,23.43,NE,45,2.0,2.0,77,0.00,,,0.00,meteohub,2013-07-19 11:43:00,
2013-07-19 05:48:00,52.3,45.3,23.43,NE,45,2.0,2.0,77,0.00,,,0.00,meteohub,2013-07-19 11:48:00,
2013-07-19 05:53:00,52.2,45.1,23.43,NE,45,2.0,2.0,77,0.00,,,0.00,meteohub,2013-07-19 11:53:00,
2013-07-19 05:58:00,52.3,45.3,23.43,NE,45,1.0,2.0,77,0.00,,,0.00,meteohub,2013-07-19 11:58:00,
2013-07-19 06:03:00,52.3,45.3,23.43,NE,45,1.0,2.0,77,0.00,,,0.00,meteohub,2013-07-19 12:03:00,
2013-07-19 06:08:00,52.5,44.8,23.43,NE,45,1.0,2.0,75,0.00,,,0.00,meteohub,2013-07-19 12:08:00,
2013-07-19 06:14:00,52.5,44.4,23.43,NE,45,0.0,2.0,74,0.00,,,0.00,meteohub,2013-07-19 12:14:00,
2013-07-19 06:19:00,52.7,44.2,23.44,NE,45,1.0,2.0,73,0.00,,,0.00,meteohub,2013-07-19 12:19:00,
2013-07-19 06:24:00,52.9,44.4,23.44,NE,45,2.0,2.0,73,0.00,,,0.00,meteohub,2013-07-19 12:24:00,
2013-07-19 06:29:00,52.7,44.2,23.44,North,0,0.0,2.0,73,0.00,,,0.00,meteohub,2013-07-19 12:29:00,
2013-07-19 06:34:00,52.5,44.1,23.44,North,0,0.0,2.0,73,0.00,,,0.00,meteohub,2013-07-19 12:34:00,
2013-07-19 06:39:00,52.5,44.4,23.44,NE,45,0.0,2.0,74,0.00,,,0.00,meteohub,2013-07-19 12:39:00,
2013-07-19 06:44:00,52.3,44.6,23.44,NE,45,0.0,2.0,75,0.00,,,0.00,meteohub,2013-07-19 12:44:00,
2013-07-19 06:49:00,52.5,45.1,23.44,NE,45,2.0,2.0,76,0.00,,,0.00,meteohub,2013-07-19 12:49:00,
2013-07-19 06:54:00,52.5,45.5,23.44,NE,45,2.0,2.0,77,0.00,,,0.00,meteohub,2013-07-19 12:54:00,
2013-07-19 06:59:00,52.9,46.2,23.44,NE,45,2.0,2.0,78,0.00,,,0.00,meteohub,2013-07-19 12:59:00,
2013-07-19 07:04:00,55.0,48.6,23.44,North,0,2.0,2.0,79,0.00,,,0.00,meteohub,2013-07-19 13:04:00,
2013-07-19 07:10:00,59.0,50.0,23.44,North,0,2.0,2.0,72,0.00,,,0.00,meteohub,2013-07-19 13:10:00,
2013-07-19 07:15:00,59.0,48.0,23.44,North,0,2.0,2.0,67,0.00,,,0.00,meteohub,2013-07-19 13:15:00,
2013-07-19 07:20:00,59.5,48.6,23.44,North,0,0.0,2.0,67,0.00,,,0.00,meteohub,2013-07-19 13:20:00,
2013-07-19 07:25:00,60.3,49.3,23.44,North,0,2.0,2.0,67,0.00,,,0.00,meteohub,2013-07-19 13:25:00,
2013-07-19 07:29:00,60.1,48.7,23.45,North,0,1.0,2.0,66,0.00,,,0.00,meteohub,2013-07-19 13:29:00,
2013-07-19 07:34:00,59.9,48.9,23.44,NE,45,2.0,2.0,67,0.00,,,0.00,meteohub,2013-07-19 13:34:00,
2013-07-19 07:39:00,62.2,50.4,23.44,North,0,1.0,2.0,65,0.00,,,0.00,meteohub,2013-07-19 13:39:00,
2013-07-19 07:44:00,66.9,53.1,23.44,North,0,0.0,2.0,61,0.00,,,0.00,meteohub,2013-07-19 13:44:00,
2013-07-19 07:49:00,71.2,54.7,23.44,North,0,0.0,2.0,56,0.00,,,0.00,meteohub,2013-07-19 13:49:00,
2013-07-19 07:54:00,75.6,55.0,23.44,North,0,0.0,2.0,49,0.00,,,0.00,meteohub,2013-07-19 13:54:00,
2013-07-19 07:59:00,75.9,53.1,23.45,NNE,23,2.0,2.0,45,0.00,,,0.00,meteohub,2013-07-19 13:59:00,
2013-07-19 08:04:00,73.9,51.8,23.45,NE,45,3.0,3.0,46,0.00,,,0.00,meteohub,2013-07-19 14:04:00,
2013-07-19 08:09:00,73.0,50.4,23.45,NE,45,2.0,2.0,45,0.00,,,0.00,meteohub,2013-07-19 14:09:00,
2013-07-19 08:14:00,73.9,51.3,23.44,North,0,1.0,3.0,45,0.00,,,0.00,meteohub,2013-07-19 14:14:00,
2013-07-19 08:19:00,74.1,52.0,23.45,NE,45,2.0,3.0,46,0.00,,,0.00,meteohub,2013-07-19 14:19:00,
2013-07-19 08:25:00,74.5,51.8,23.45,NW,315,2.0,3.0,45,0.00,,,0.00,meteohub,2013-07-19 14:25:00,
2013-07-19 08:30:00,73.2,48.7,23.45,SW,225,0.0,2.0,42,0.00,,,0.00,meteohub,2013-07-19 14:30:00,
2013-07-19 08:35:00,71.6,47.8,23.45,SW,225,0.0,2.0,43,0.00,,,0.00,meteohub,2013-07-19 14:35:00,
2013-07-19 08:40:00,73.0,49.8,23.45,SW,225,0.0,2.0,44,0.00,,,0.00,meteohub,2013-07-19 14:40:00,
2013-07-19 08:45:00,76.1,52.5,23.45,SW,225,0.0,0.0,44,0.00,,,0.00,meteohub,2013-07-19 14:45:00,
2013-07-19 08:50:00,78.6,51.6,23.45,SW,225,0.0,0.0,39,0.00,,,0.00,meteohub,2013-07-19 14:50:00,
2013-07-19 08:55:00,79.9,48.9,23.45,SW,225,2.0,2.0,34,0.00,,,0.00,meteohub,2013-07-19 14:55:00,
2013-07-19 09:00:00,80.8,50.5,23.45,NW,315,0.0,2.0,35,0.00,,,0.00,meteohub,2013-07-19 15:00:00,
2013-07-19 09:05:00,82.0,49.3,23.45,SW,225,0.0,2.0,32,0.00,,,0.00,meteohub,2013-07-19 15:05:00,
2013-07-19 09:10:00,82.4,52.0,23.45,SW,225,0.0,2.0,35,0.00,,,0.00,meteohub,2013-07-19 15:10:00,
2013-07-19 09:16:00,82.2,49.5,23.45,SW,225,0.0,0.0,32,0.00,,,0.00,meteohub,2013-07-19 15:16:00,
2013-07-19 09:21:00,81.7,48.9,23.45,SW,225,1.0,2.0,32,0.00,,,0.00,meteohub,2013-07-19 15:21:00,
2013-07-19 09:26:00,81.1,48.6,23.45,SW,225,2.0,2.0,32,0.00,,,0.00,meteohub,2013-07-19 15:26:00,
2013-07-19 09:31:00,81.1,48.6,23.45,SW,225,0.0,2.0,32,0.00,,,0.00,meteohub,2013-07-19 15:31:00,
2013-07-19 09:36:00,82.0,49.3,23.44,SW,225,0.0,2.0,32,0.00,,,0.00,meteohub,2013-07-19 15:36:00,
2013-07-19 09:41:00,83.3,53.6,23.45,SW,225,0.0,2.0,36,0.00,,,0.00,meteohub,2013-07-19 15:41:00,
2013-07-19 09:46:00,85.5,54.7,23.45,SW,225,0.0,0.0,35,0.00,,,0.00,meteohub,2013-07-19 15:46:00,
2013-07-19 09:51:00,86.0,53.6,23.44,SW,225,2.0,0.0,33,0.00,,,0.00,meteohub,2013-07-19 15:51:00,
2013-07-19 09:56:00,85.1,53.6,23.44,SW,225,2.0,2.0,34,0.00,,,0.00,meteohub,2013-07-19 15:56:00,
2013-07-19 10:01:00,84.0,54.1,23.45,SW,225,0.0,2.0,36,0.00,,,0.00,meteohub,2013-07-19 16:01:00,
2013-07-19 10:06:00,84.2,53.6,23.44,SW,225,0.0,2.0,35,0.00,,,0.00,meteohub,2013-07-19 16:06:00,
2013-07-19 10:12:00,84.6,54.0,23.44,SW,225,0.0,2.0,35,0.00,,,0.00,meteohub,2013-07-19 16:12:00,
2013-07-19 10:17:00,84.7,53.2,23.44,SW,225,0.0,0.0,34,0.00,,,0.00,meteohub,2013-07-19 16:17:00,
2013-07-19 10:22:00,84.7,53.2,23.44,SW,225,0.0,0.0,34,0.00,,,0.00,meteohub,2013-07-19 16:22:00,
2013-07-19 10:27:00,85.3,54.5,23.44,SW,225,0.0,0.0,35,0.00,,,0.00,meteohub,2013-07-19 16:27:00,
2013-07-19 10:32:00,85.5,54.7,23.44,South,180,1.0,2.0,35,0.00,,,0.00,meteohub,2013-07-19 16:32:00,
2013-07-19 10:37:00,85.5,54.7,23.44,SW,225,0.0,2.0,35,0.00,,,0.00,meteohub,2013-07-19 16:37:00,
2013-07-19 10:42:00,85.8,55.0,23.44,South,180,2.0,2.0,35,0.00,,,0.00,meteohub,2013-07-19 16:42:00,
2013-07-19 10:47:00,84.9,54.1,23.44,SW,225,2.0,2.0,35,0.00,,,0.00,meteohub,2013-07-19 16:47:00,
2013-07-19 10:52:00,85.5,55.4,23.44,SW,225,0.0,2.0,36,0.00,,,0.00,meteohub,2013-07-19 16:52:00,
2013-07-19 10:57:00,85.8,55.0,23.44,SW,225,0.0,2.0,35,0.00,,,0.00,meteohub,2013-07-19 16:57:00,
2013-07-19 11:02:00,87.3,54.7,23.44,SW,225,0.0,2.0,33,0.00,,,0.00,meteohub,2013-07-19 17:02:00,
2013-07-19 11:07:00,87.3,51.1,23.44,South,180,2.0,2.0,29,0.00,,,0.00,meteohub,2013-07-19 17:07:00,
2013-07-19 11:12:00,86.9,47.8,23.44,SW,225,2.0,2.0,26,0.00,,,0.00,meteohub,2013-07-19 17:12:00,
2013-07-19 11:17:00,86.9,45.7,23.44,SW,225,0.0,2.0,24,0.00,,,0.00,meteohub,2013-07-19 17:17:00,
2013-07-19 11:22:00,87.4,40.1,23.44,SW,225,1.0,2.0,19,0.00,,,0.00,meteohub,2013-07-19 17:22:00,
2013-07-19 11:27:00,86.5,36.5,23.44,SW,225,2.0,2.0,17,0.00,,,0.00,meteohub,2013-07-19 17:27:00,
2013-07-19 11:32:00,86.2,37.8,23.44,SW,225,2.0,2.0,18,0.00,,,0.00,meteohub,2013-07-19 17:32:00,
2013-07-19 11:37:00,86.2,39.0,23.44,SW,225,2.0,3.0,19,0.00,,,0.00,meteohub,2013-07-19 17:37:00,
2013-07-19 11:42:00,87.3,35.6,23.44,SW,225,2.0,3.0,16,0.00,,,0.00,meteohub,2013-07-19 17:42:00,
2013-07-19 11:47:00,87.6,36.0,23.44,NE,45,2.0,4.0,16,0.00,,,0.00,meteohub,2013-07-19 17:47:00,
2013-07-19 11:52:00,88.0,36.1,23.44,SW,225,2.0,4.0,16,0.00,,,0.00,meteohub,2013-07-19 17:52:00,
2013-07-19 11:57:00,88.3,39.4,23.44,South,180,2.0,4.0,18,0.00,,,0.00,meteohub,2013-07-19 17:57:00,
2013-07-19 12:02:00,88.7,41.2,23.44,SW,225,2.0,3.0,19,0.00,,,0.00,meteohub,2013-07-19 18:02:00,
2013-07-19 12:07:00,88.7,41.2,23.44,SW,225,2.0,3.0,19,0.00,,,0.00,meteohub,2013-07-19 18:07:00,
2013-07-19 12:12:00,89.2,38.7,23.44,SW,225,2.0,3.0,17,0.00,,,0.00,meteohub,2013-07-19 18:12:00,
2013-07-19 12:17:00,88.9,39.9,23.44,SW,225,2.0,2.0,18,0.00,,,0.00,meteohub,2013-07-19 18:17:00,
2013-07-19 12:22:00,89.2,38.7,23.44,SW,225,1.0,2.0,17,0.00,,,0.00,meteohub,2013-07-19 18:22:00,
2013-07-19 12:27:00,89.6,37.4,23.44,SSE,158,2.0,2.0,16,0.00,,,0.00,meteohub,2013-07-19 18:27:00,
2013-07-19 12:32:00,90.0,34.3,23.44,SW,225,2.0,2.0,14,0.00,,,0.00,meteohub,2013-07-19 18:32:00,
2013-07-19 12:37:00,90.3,36.3,23.44,South,180,2.0,2.0,15,0.00,,,0.00,meteohub,2013-07-19 18:37:00,
2013-07-19 12:42:00,90.7,33.1,23.43,West,270,2.0,2.0,13,0.00,,,0.00,meteohub,2013-07-19 18:42:00,
2013-07-19 12:47:00,90.5,32.9,23.43,SW,225,4.0,4.0,13,0.00,,,0.00,meteohub,2013-07-19 18:47:00,
2013-07-19 12:52:00,89.8,30.4,23.44,SW,225,2.0,4.0,12,0.00,,,0.00,meteohub,2013-07-19 18:52:00,
2013-07-19 12:57:00,90.0,30.6,23.43,SW,225,2.0,4.0,12,0.00,,,0.00,meteohub,2013-07-19 18:57:00,
2013-07-19 13:02:00,89.8,30.4,23.43,SW,225,2.0,4.0,12,0.00,,,0.00,meteohub,2013-07-19 19:02:00,
2013-07-19 13:07:00,90.0,30.6,23.43,SW,225,2.0,4.0,12,0.00,,,0.00,meteohub,2013-07-19 19:07:00,
2013-07-19 13:12:00,90.1,30.7,23.43,South,180,2.0,4.0,12,0.00,,,0.00,meteohub,2013-07-19 19:12:00,
2013-07-19 13:17:00,90.0,30.6,23.43,SW,225,3.0,3.0,12,0.00,,,0.00,meteohub,2013-07-19 19:17:00,
2013-07-19 13:22:00,89.4,32.2,23.43,SW,225,2.0,3.0,13,0.00,,,0.00,meteohub,2013-07-19 19:22:00,
2013-07-19 13:27:00,89.4,32.2,23.43,WSW,248,2.0,3.0,13,0.00,,,0.00,meteohub,2013-07-19 19:27:00,
2013-07-19 13:32:00,89.8,28.2,23.43,South,180,3.0,4.0,11,0.00,,,0.00,meteohub,2013-07-19 19:32:00,
2013-07-19 13:37:00,88.5,29.5,23.42,WSW,248,2.0,4.0,12,0.00,,,0.00,meteohub,2013-07-19 19:37:00,
2013-07-19 13:42:00,87.4,30.6,23.43,SW,225,2.0,4.0,13,0.00,,,0.00,meteohub,2013-07-19 19:42:00,
2013-07-19 13:47:00,87.4,30.6,23.43,NW,315,3.0,4.0,13,0.00,,,0.00,meteohub,2013-07-19 19:47:00,
2013-07-19 13:52:00,87.4,30.6,23.42,South,180,2.0,3.0,13,0.00,,,0.00,meteohub,2013-07-19 19:52:00,
2013-07-19 13:57:00,87.6,30.7,23.42,SW,225,3.0,4.0,13,0.00,,,0.00,meteohub,2013-07-19 19:57:00,
2013-07-19 14:02:00,87.6,30.7,23.42,South,180,2.0,4.0,13,0.00,,,0.00,meteohub,2013-07-19 20:02:00,
2013-07-19 14:07:00,87.4,30.6,23.42,SW,225,2.0,4.0,13,0.00,,,0.00,meteohub,2013-07-19 20:07:00,
2013-07-19 14:13:00,87.6,32.5,23.42,SSE,158,3.0,3.0,14,0.00,,,0.00,meteohub,2013-07-19 20:13:00,
2013-07-19 14:18:00,87.4,30.6,23.42,SW,225,2.0,3.0,13,0.00,,,0.00,meteohub,2013-07-19 20:18:00,
2013-07-19 14:23:00,87.3,32.2,23.42,South,180,3.0,4.0,14,0.00,,,0.00,meteohub,2013-07-19 20:23:00,
2013-07-19 14:28:00,86.7,31.8,23.42,SE,135,3.0,4.0,14,0.00,,,0.00,meteohub,2013-07-19 20:28:00,
2013-07-19 14:33:00,86.9,32.0,23.42,South,180,2.0,3.0,14,0.00,,,0.00,meteohub,2013-07-19 20:33:00,
2013-07-19 14:38:00,87.4,37.2,23.41,SW,225,2.0,3.0,17,0.00,,,0.00,meteohub,2013-07-19 20:38:00,
2013-07-19 14:43:00,87.4,30.6,23.41,SW,225,2.0,3.0,13,0.00,,,0.00,meteohub,2013-07-19 20:43:00,
2013-07-19 14:48:00,87.4,32.4,23.41,South,180,2.0,4.0,14,0.00,,,0.00,meteohub,2013-07-19 20:48:00,
2013-07-19 14:53:00,87.6,32.5,23.41,SW,225,2.0,4.0,14,0.00,,,0.00,meteohub,2013-07-19 20:53:00,
2013-07-19 14:58:00,87.6,32.5,23.41,SW,225,2.0,4.0,14,0.00,,,0.00,meteohub,2013-07-19 20:58:00,
2013-07-19 14:59:00,87.6,32.5,23.41,SW,225,2.0,4.0,14,0.00,,,0.00,meteohub,2013-07-19 20:59:00,
2013-07-19 15:04:00,88.0,28.9,23.40,SW,225,2.0,3.0,12,0.00,,,0.00,meteohub,2013-07-19 21:04:00,
2013-07-19 15:09:00,88.2,31.1,23.40,SE,135,4.0,4.0,13,0.00,,,0.00,meteohub,2013-07-19 21:09:00,
2013-07-19 15:14:00,87.8,28.9,23.40,South,180,2.0,3.0,12,0.00,,,0.00,meteohub,2013-07-19 21:14:00,
2013-07-19 15:19:00,88.2,29.1,23.40,SW,225,3.0,4.0,12,0.00,,,0.00,meteohub,2013-07-19 21:19:00,
2013-07-19 15:24:00,87.8,28.9,23.40,SW,225,3.0,4.0,12,0.00,,,0.00,meteohub,2013-07-19 21:24:00,
2013-07-19 15:30:00,87.8,28.9,23.40,SW,225,2.0,4.0,12,0.00,,,0.00,meteohub,2013-07-19 21:30:00,
2013-07-19 15:35:00,87.8,28.9,23.40,SW,225,2.0,4.0,12,0.00,,,0.00,meteohub,2013-07-19 21:35:00,
2013-07-19 15:40:00,87.6,30.7,23.40,South,180,2.0,4.0,13,0.00,,,0.00,meteohub,2013-07-19 21:40:00,
2013-07-19 15:45:00,87.8,28.9,23.39,SW,225,2.0,4.0,12,0.00,,,0.00,meteohub,2013-07-19 21:45:00,
2013-07-19 15:50:00,87.8,28.9,23.39,South,180,3.0,3.0,12,0.00,,,0.00,meteohub,2013-07-19 21:50:00,
2013-07-19 15:55:00,87.8,28.9,23.39,SW,225,2.0,4.0,12,0.00,,,0.00,meteohub,2013-07-19 21:55:00,
2013-07-19 16:00:00,87.8,28.9,23.39,SW,225,2.0,4.0,12,0.00,,,0.00,meteohub,2013-07-19 22:00:00,
2013-07-19 16:05:00,87.8,28.9,23.39,SW,225,2.0,4.0,12,0.00,,,0.00,meteohub,2013-07-19 22:05:00,
2013-07-19 16:10:00,87.4,30.6,23.39,NW,315,2.0,4.0,13,0.00,,,0.00,meteohub,2013-07-19 22:10:00,
2013-07-19 16:15:00,87.8,28.9,23.39,South,180,3.0,4.0,12,0.00,,,0.00,meteohub,2013-07-19 22:15:00,
2013-07-19 16:21:00,88.0,28.9,23.38,South,180,2.0,4.0,12,0.00,,,0.00,meteohub,2013-07-19 22:21:00,
2013-07-19 16:26:00,88.0,28.9,23.38,SW,225,2.0,3.0,12,0.00,,,0.00,meteohub,2013-07-19 22:26:00,
2013-07-19 16:31:00,88.0,28.9,23.38,SW,225,2.0,3.0,12,0.00,,,0.00,meteohub,2013-07-19 22:31:00,
2013-07-19 16:36:00,88.5,29.5,23.38,West,270,2.0,3.0,12,0.00,,,0.00,meteohub,2013-07-19 22:36:00,
2013-07-19 16:41:00,88.2,29.1,23.37,South,180,2.0,3.0,12,0.00,,,0.00,meteohub,2013-07-19 22:41:00,
2013-07-19 16:46:00,88.2,29.1,23.38,South,180,3.0,3.0,12,0.00,,,0.00,meteohub,2013-07-19 22:46:00,
2013-07-19 16:51:00,88.0,28.9,23.37,South,180,4.0,4.0,12,0.00,,,0.00,meteohub,2013-07-19 22:51:00,
2013-07-19 16:56:00,87.8,28.9,23.37,SW,225,2.0,4.0,12,0.00,,,0.00,meteohub,2013-07-19 22:56:00,
2013-07-19 17:01:00,88.2,29.1,23.37,South,180,2.0,4.0,12,0.00,,,0.00,meteohub,2013-07-19 23:01:00,
2013-07-19 17:06:00,88.2,29.1,23.37,SW,225,2.0,4.0,12,0.00,,,0.00,meteohub,2013-07-19 23:06:00,
2013-07-19 17:11:00,88.0,28.9,23.37,SW,225,2.0,3.0,12,0.00,,,0.00,meteohub,2013-07-19 23:11:00,
2013-07-19 17:17:00,88.2,31.1,23.37,SW,225,2.0,3.0,13,0.00,,,0.00,meteohub,2013-07-19 23:17:00,
2013-07-19 17:22:00,87.8,30.9,23.37,South,180,2.0,3.0,13,0.00,,,0.00,meteohub,2013-07-19 23:22:00,
2013-07-19 17:27:00,87.8,28.9,23.36,South,180,2.0,4.0,12,0.00,,,0.00,meteohub,2013-07-19 23:27:00,
2013-07-19 17:32:00,88.0,28.9,23.36,SW,225,2.0,4.0,12,0.00,,,0.00,meteohub,2013-07-19 23:32:00,
2013-07-19 17:37:00,88.5,29.5,23.36,South,180,2.0,3.0,12,0.00,,,0.00,meteohub,2013-07-19 23:37:00,
2013-07-19 17:42:00,88.3,29.3,23.36,South,180,2.0,3.0,12,0.00,,,0.00,meteohub,2013-07-19 23:42:00,
2013-07-19 17:47:00,88.0,28.9,23.36,SW,225,2.0,3.0,12,0.00,,,0.00,meteohub,2013-07-19 23:47:00,
2013-07-19 17:52:00,88.2,29.1,23.36,South,180,2.0,3.0,12,0.00,,,0.00,meteohub,2013-07-19 23:52:00,
2013-07-19 17:57:00,88.5,31.5,23.36,SW,225,3.0,3.0,13,0.00,,,0.00,meteohub,2013-07-19 23:57:00,
2013-07-19 18:02:00,88.3,31.3,23.36,SW,225,2.0,3.0,13,0.00,,,0.00,meteohub,2013-07-20 00:02:00,
2013-07-19 18:07:00,88.3,31.3,23.36,SW,225,2.0,3.0,13,0.00,,,0.00,meteohub,2013-07-20 00:07:00,
2013-07-19 18:12:00,88.2,31.1,23.36,South,180,2.0,3.0,13,0.00,,,0.00,meteohub,2013-07-20 00:12:00,
2013-07-19 18:17:00,88.5,31.5,23.36,South,180,2.0,4.0,13,0.00,,,0.00,meteohub,2013-07-20 00:17:00,
2013-07-19 18:22:00,88.5,31.5,23.36,South,180,2.0,4.0,13,0.00,,,0.00,meteohub,2013-07-20 00:22:00,
2013-07-19 18:27:00,88.3,33.1,23.35,SW,225,2.0,2.0,14,0.00,,,0.00,meteohub,2013-07-20 00:27:00,
2013-07-19 18:32:00,88.5,35.1,23.36,SW,225,2.0,2.0,15,0.00,,,0.00,meteohub,2013-07-20 00:32:00,
2013-07-19 18:37:00,88.2,36.3,23.35,South,180,2.0,3.0,16,0.00,,,0.00,meteohub,2013-07-20 00:37:00,
2013-07-19 18:42:00,88.0,36.1,23.35,SSE,158,2.0,3.0,16,0.00,,,0.00,meteohub,2013-07-20 00:42:00,
2013-07-19 18:47:00,87.8,34.3,23.36,SW,225,2.0,3.0,15,0.00,,,0.00,meteohub,2013-07-20 00:47:00,
2013-07-19 18:52:00,87.8,34.3,23.36,SW,225,2.0,3.0,15,0.00,,,0.00,meteohub,2013-07-20 00:52:00,
2013-07-19 18:57:00,87.8,34.3,23.36,South,180,2.0,3.0,15,0.00,,,0.00,meteohub,2013-07-20 00:57:00,
2013-07-19 19:02:00,88.0,34.5,23.35,SW,225,2.0,3.0,15,0.00,,,0.00,meteohub,2013-07-20 01:02:00,
2013-07-19 19:07:00,87.8,37.6,23.35,South,180,2.0,2.0,17,0.00,,,0.00,meteohub,2013-07-20 01:07:00,
2013-07-19 19:12:00,87.6,41.5,23.35,South,180,2.0,2.0,20,0.00,,,0.00,meteohub,2013-07-20 01:12:00,
2013-07-19 19:17:00,87.4,42.8,23.35,SW,225,2.0,2.0,21,0.00,,,0.00,meteohub,2013-07-20 01:17:00,
2013-07-19 19:22:00,86.9,42.3,23.35,South,180,2.0,2.0,21,0.00,,,0.00,meteohub,2013-07-20 01:22:00,
2013-07-19 19:27:00,86.9,43.5,23.35,SW,225,2.0,2.0,22,0.00,,,0.00,meteohub,2013-07-20 01:27:00,
2013-07-19 19:32:00,86.9,44.6,23.35,North,0,2.0,2.0,23,0.00,,,0.00,meteohub,2013-07-20 01:32:00,
2013-07-19 19:37:00,86.7,43.3,23.35,SW,225,2.0,2.0,22,0.00,,,0.00,meteohub,2013-07-20 01:37:00,
2013-07-19 19:42:00,86.5,43.2,23.35,South,180,2.0,2.0,22,0.00,,,0.00,meteohub,2013-07-20 01:42:00,
2013-07-19 19:47:00,86.2,44.1,23.35,SW,225,2.0,2.0,23,0.00,,,0.00,meteohub,2013-07-20 01:47:00,
2013-07-19 19:52:00,86.0,43.9,23.36,SW,225,1.0,2.0,23,0.00,,,0.00,meteohub,2013-07-20 01:52:00,
2013-07-19 19:57:00,85.8,45.9,23.36,NW,315,2.0,2.0,25,0.00,,,0.00,meteohub,2013-07-20 01:57:00,
2013-07-19 20:02:00,85.3,46.6,23.36,NE,45,2.0,2.0,26,0.00,,,0.00,meteohub,2013-07-20 02:02:00,
2013-07-19 20:07:00,85.3,46.6,23.36,NE,45,2.0,2.0,26,0.00,,,0.00,meteohub,2013-07-20 02:07:00,
2013-07-19 20:12:00,84.4,44.8,23.36,NW,315,0.0,2.0,25,0.00,,,0.00,meteohub,2013-07-20 02:12:00,
2013-07-19 20:17:00,82.9,44.6,23.36,North,0,0.0,2.0,26,0.00,,,0.00,meteohub,2013-07-20 02:17:00,
2013-07-19 20:22:00,81.0,40.8,23.36,North,0,0.0,2.0,24,0.00,,,0.00,meteohub,2013-07-20 02:22:00,
2013-07-19 20:27:00,78.6,41.9,23.36,SW,225,1.0,1.0,27,0.00,,,0.00,meteohub,2013-07-20 02:27:00,
2013-07-19 20:32:00,77.4,41.7,23.36,North,0,1.0,1.0,28,0.00,,,0.00,meteohub,2013-07-20 02:32:00,
2013-07-19 20:37:00,76.5,42.8,23.36,NE,45,0.0,2.0,30,0.00,,,0.00,meteohub,2013-07-20 02:37:00,
2013-07-19 20:42:00,77.5,41.9,23.36,NE,45,1.0,2.0,28,0.00,,,0.00,meteohub,2013-07-20 02:42:00,
2013-07-19 20:47:00,78.3,42.4,23.36,NNE,23,1.0,2.0,28,0.00,,,0.00,meteohub,2013-07-20 02:47:00,
2013-07-19 20:52:00,78.8,41.0,23.36,NW,315,2.0,2.0,26,0.00,,,0.00,meteohub,2013-07-20 02:52:00,
2013-07-19 20:57:00,77.9,40.3,23.37,NE,45,1.0,3.0,26,0.00,,,0.00,meteohub,2013-07-20 02:57:00,
2013-07-19 21:02:00,78.1,42.3,23.37,WSW,248,2.0,3.0,28,0.00,,,0.00,meteohub,2013-07-20 03:02:00,
2013-07-19 21:07:00,77.9,40.3,23.37,North,0,0.0,3.0,26,0.00,,,0.00,meteohub,2013-07-20 03:07:00,
2013-07-19 21:12:00,76.5,39.9,23.37,North,0,0.0,2.0,27,0.00,,,0.00,meteohub,2013-07-20 03:12:00,
2013-07-19 21:17:00,74.8,40.5,23.37,North,0,0.0,2.0,29,0.00,,,0.00,meteohub,2013-07-20 03:17:00,
2013-07-19 21:22:00,73.4,40.1,23.37,West,270,1.0,1.0,30,0.00,,,0.00,meteohub,2013-07-20 03:22:00,
2013-07-19 21:27:00,72.7,40.3,23.37,NE,45,0.0,2.0,31,0.00,,,0.00,meteohub,2013-07-20 03:27:00,
2013-07-19 21:32:00,73.8,42.1,23.37,North,0,2.0,2.0,32,0.00,,,0.00,meteohub,2013-07-20 03:32:00,
2013-07-19 21:37:00,74.3,42.6,23.38,North,0,1.0,2.0,32,0.00,,,0.00,meteohub,2013-07-20 03:37:00,
2013-07-19 21:42:00,74.3,41.7,23.38,NE,45,1.0,2.0,31,0.00,,,0.00,meteohub,2013-07-20 03:42:00,
2013-07-19 21:47:00,74.5,42.6,23.37,NE,45,2.0,2.0,32,0.00,,,0.00,meteohub,2013-07-20 03:47:00,
2013-07-19 21:52:00,74.1,41.5,23.38,NE,45,2.0,2.0,31,0.00,,,0.00,meteohub,2013-07-20 03:52:00,
2013-07-19 21:57:00,74.1,40.6,23.38,NE,45,2.0,2.0,30,0.00,,,0.00,meteohub,2013-07-20 03:57:00,
2013-07-19 22:01:00,73.6,41.0,23.38,NE,45,1.0,2.0,31,0.00,,,0.00,meteohub,2013-07-20 04:01:00,
2013-07-19 22:02:00,73.6,41.0,23.39,NE,45,1.0,2.0,31,0.00,,,0.00,meteohub,2013-07-20 04:02:00,
2013-07-19 22:05:00,73.6,41.0,23.38,NE,45,1.0,2.0,31,0.00,,,0.00,meteohub,2013-07-20 04:05:00,
2013-07-19 22:10:00,72.9,41.4,23.39,WSW,248,2.0,2.0,32,0.00,,,0.00,meteohub,2013-07-20 04:10:00,
2013-07-19 22:15:00,72.3,39.9,23.38,NE,45,1.0,2.0,31,0.00,,,0.00,meteohub,2013-07-20 04:15:00,
2013-07-19 22:20:00,71.8,40.3,23.39,NE,45,0.0,2.0,32,0.00,,,0.00,meteohub,2013-07-20 04:20:00,
2013-07-19 22:25:00,71.1,39.7,23.39,NE,45,0.0,2.0,32,0.00,,,0.00,meteohub,2013-07-20 04:25:00,
2013-07-19 22:30:00,69.1,38.8,23.39,North,0,1.0,2.0,33,0.00,,,0.00,meteohub,2013-07-20 04:30:00,
2013-07-19 22:35:00,67.3,39.4,23.39,NE,45,1.0,2.0,36,0.00,,,0.00,meteohub,2013-07-20 04:35:00,
2013-07-19 22:40:00,66.2,39.9,23.39,North,0,1.0,2.0,38,0.00,,,0.00,meteohub,2013-07-20 04:40:00,
2013-07-19 22:45:00,67.5,41.7,23.39,East,90,2.0,2.0,39,0.00,,,0.00,meteohub,2013-07-20 04:45:00,
2013-07-19 22:50:00,68.4,41.0,23.39,North,0,2.0,2.0,37,0.00,,,0.00,meteohub,2013-07-20 04:50:00,
2013-07-19 22:55:00,68.9,40.8,23.39,North,0,2.0,2.0,36,0.00,,,0.00,meteohub,2013-07-20 04:55:00,
2013-07-19 23:01:00,69.1,41.0,23.39,North,0,1.0,2.0,36,0.00,,,0.00,meteohub,2013-07-20 05:01:00,
2013-07-19 23:06:00,69.3,41.9,23.39,NE,45,2.0,2.0,37,0.00,,,0.00,meteohub,2013-07-20 05:06:00,
2013-07-19 23:11:00,68.9,41.5,23.39,North,0,1.0,2.0,37,0.00,,,0.00,meteohub,2013-07-20 05:11:00,
2013-07-19 23:16:00,68.7,41.4,23.39,NE,45,2.0,2.0,37,0.00,,,0.00,meteohub,2013-07-20 05:16:00,
2013-07-19 23:21:00,68.0,41.4,23.39,North,0,2.0,2.0,38,0.00,,,0.00,meteohub,2013-07-20 05:21:00,
2013-07-19 23:26:00,66.9,41.2,23.39,NE,45,1.0,2.0,39,0.00,,,0.00,meteohub,2013-07-20 05:26:00,
2013-07-19 23:31:00,66.0,42.3,23.39,NE,45,2.0,2.0,42,0.00,,,0.00,meteohub,2013-07-20 05:31:00,
2013-07-19 23:36:00,66.6,42.8,23.39,West,270,1.0,2.0,42,0.00,,,0.00,meteohub,2013-07-20 05:36:00,
2013-07-19 23:41:00,66.9,42.4,23.39,NE,45,2.0,2.0,41,0.00,,,0.00,meteohub,2013-07-20 05:41:00,
2013-07-19 23:46:00,64.8,43.0,23.39,NE,45,2.0,3.0,45,0.00,,,0.00,meteohub,2013-07-20 05:46:00,
2013-07-19 23:52:00,64.0,43.3,23.38,North,0,1.0,3.0,47,0.00,,,0.00,meteohub,2013-07-20 05:52:00,
2013-07-19 23:57:00,64.2,43.0,23.39,North,0,2.0,3.0,46,0.00,,,0.00,meteohub,2013-07-20 05:57:00,